• Join FlightAware (Why Join?)
  • Login
  • US Flag 
04:37PM EDT


 

Airport Tracker/Info


-or-


 

Live Flight TrackerFlight Track Log ✈ DAL6048 ✈ 16-Apr-2013 ✈ KMHT - KLGA

Flight Track Log - Related Links

Times and Time Zones

All times are in EDT time to prevent confusion due to time zone crossing. See the DAL6048 flight status page for this flight to view local times or setup timezone preferences in your user account.

Time Position Orientation Groundspeed Altitude Reporting Facility
EDT Latitude Longitude Course Direction KTS MPH feet Rate Location/Type
09:06AM 42.9167 -71.4500 231° Southwest 156 180 1,100  Level KA90
09:07AM 42.9167 -71.5000 270° West 172 198 2,600 2,100 Climbing KA90
09:07AM 42.9156 -71.5244 266° West 229 264 3,500 2,520 Climbing Boston Center
09:08AM 42.9039 -71.6039 259° West 214 246 6,200 2,280 Climbing Boston Center
09:09AM 42.7256 -71.6799 228° Southwest  Level Estimated
09:09AM 42.8939 -71.6750 259° West 209 241 8,100  Level Boston Center
09:10AM 42.6564 -71.7610 236° Southwest  Level Estimated
09:10AM 42.8819 -71.7742 261° West 234 269 10,400  Level Boston Center
09:11AM 42.5872 -71.8418 231° Southwest  Level Estimated
09:11AM 42.8511 -71.8511 241° Southwest 244 281 11,800  Level Boston Center
09:12AM 42.7975 -71.9422 231° Southwest 273 314 13,500 1,560 Climbing Boston Center
09:13AM 42.7333 -72.0528 232° Southwest 307 353 15,300 1,200 Climbing Boston Center
09:14AM 42.6833 -72.1378 231° Southwest 324 373 16,000 300 Climbing Boston Center
09:15AM 42.6150 -72.2511 231° Southwest 352 405 16,000  Level Boston Center
09:16AM 42.5567 -72.3556 233° Southwest 352 405 16,000  Level Boston Center
09:17AM 42.4942 -72.4597 231° Southwest 352 405 16,000  Level Boston Center
09:18AM 42.4317 -72.5611 230° Southwest 352 405 16,000  Level Boston Center
09:19AM 42.3772 -72.6536 231° Southwest 352 405 16,000 -120 Level Boston Center
09:20AM 42.3125 -72.7575 230° Southwest 352 405 15,800 -660 Descending Boston Center
09:21AM 42.2392 -72.8608 226° Southwest 352 405 14,700 -960 Descending Boston Center
09:22AM 42.1783 -72.9389 224° Southwest 345 397 14,000 -360 Descending Boston Center
09:23AM 42.1050 -73.0333 224° Southwest 340 391 14,000  Level Boston Center
09:24AM 42.0461 -73.1111 224° Southwest 334 384 14,000  Level Boston Center
09:25AM 41.9706 -73.2081 224° Southwest 334 384 14,000  Level Boston Center
09:26AM 41.9117 -73.2853 224° Southwest 328 377 14,000 -120 Level Boston Center
09:27AM 41.8400 -73.3708 222° Southwest 333 383 13,800 -840 Descending Boston Center
09:28AM 41.7542 -73.4447 213° Southwest 341 392 12,400 -1,200 Descending Boston Center
09:30AM 41.6000 -73.5833 214° Southwest 297 342 10,300 -1,080 Descending New York TRACON
09:31AM 41.5333 -73.6333 209° Southwest 249 287 9,300 -660 Descending New York TRACON
09:32AM 41.4833 -73.6833 217° Southwest 241 277 9,000 -180 Descending New York TRACON
09:33AM 41.4333 -73.7167 207° Southwest 244 281 9,000 -360 Level New York TRACON
09:34AM 41.3667 -73.7667 209° Southwest 244 281 8,400 -900 Descending New York TRACON
09:35AM 41.3167 -73.7667 180° South 254 292 7,200 -1,380 Descending New York TRACON
09:36AM 41.2500 -73.7167 151° Southeast 256 295 5,700 -1,380 Descending New York TRACON
09:37AM 41.2000 -73.6667 143° Southeast 246 283 4,500 -900 Descending New York TRACON
09:38AM 41.1333 -73.6167 151° Southeast 242 278 4,000 -300 Descending New York TRACON
09:39AM 41.0833 -73.6333 194° South 226 260 4,000  Level New York TRACON
09:40AM 41.0333 -73.6667 207° Southwest 228 262 4,000 -180 Level New York TRACON
09:41AM 40.9833 -73.7000 207° Southwest 175 201 3,700 -540 Descending New York TRACON
09:42AM 40.9500 -73.7333 217° Southwest 155 178 3,000 -420 Descending New York TRACON
09:43AM 40.9167 -73.7667 217° Southwest 154 177 3,000 -360 Level New York TRACON
09:44AM 40.8833 -73.7833 201° Southwest 158 182 2,400 -660 Descending New York TRACON